Time;durP1;ratioP1;P1;durP2;ratioP2;P2;SDS_P1;SDS_P2;PMS_P1;PMS_P2;Temp;Humidity;BMP_temperature;BMP_pressure;BME280_temperature;BME280_humidity;BME280_pressure;Samples;Min_cycle;Max_cycle;Signal;HPM_P1;HPM_P2
2020/12/21 00:00:51;;;;;;;10.57;8.95;;;;;;;11.02;56.29;101688.81;5001355;28;100055;-75
2020/12/21 00:03:18;;;;;;;12.70;9.25;;;;;;;11.00;55.62;101683.41;5000662;28;96858;-75
2020/12/21 00:05:50;;;;;;;11.60;9.20;;;;;;;10.99;55.90;101675.44;5000771;28;96765;-73
2020/12/21 00:08:17;;;;;;;10.55;9.45;;;;;;;10.97;56.21;101687.56;4987179;28;101414;-75
2020/12/21 00:10:45;;;;;;;11.90;10.23;;;;;;;10.93;55.83;101683.81;5000782;28;98164;-75
2020/12/21 00:13:12;;;;;;;14.85;9.52;;;;;;;10.90;55.95;101696.78;5008413;28;96899;-74
2020/12/21 00:15:41;;;;;;;10.68;8.88;;;;;;;10.88;55.89;101693.13;4983556;28;96850;-75
2020/12/21 00:18:27;;;;;;;11.05;9.55;;;;;;;10.84;56.36;101688.47;5002797;28;98036;-75
2020/12/21 00:20:56;;;;;;;13.30;9.80;;;;;;;10.85;56.35;101698.19;4994332;28;99189;-75
2020/12/21 00:23:41;;;;;;;10.27;8.73;;;;;;;10.84;56.33;101684.94;4990420;28;97234;-76
2020/12/21 00:26:09;;;;;;;13.25;9.05;;;;;;;10.84;56.22;101679.66;4999012;28;97277;-74
2020/12/21 00:28:36;;;;;;;11.23;8.88;;;;;;;10.81;55.94;101690.91;4991894;28;98008;-73
2020/12/21 00:31:04;;;;;;;11.57;9.43;;;;;;;10.80;55.85;101701.31;4991290;28;99434;-73
2020/12/21 00:33:34;;;;;;;13.88;11.35;;;;;;;10.80;56.35;101703.97;4991329;28;96736;-73
2020/12/21 00:36:06;;;;;;;12.90;9.75;;;;;;;10.76;55.89;101701.94;4992607;28;96918;-73
2020/12/21 00:38:52;;;;;;;10.85;8.45;;;;;;;10.74;56.28;101706.16;4991371;28;101930;-74
2020/12/21 00:41:21;;;;;;;11.50;8.95;;;;;;;10.72;56.43;101711.31;5010347;28;99172;-73
2020/12/21 00:43:51;;;;;;;12.68;9.80;;;;;;;10.70;56.54;101712.00;5011873;28;97018;-74
2020/12/21 00:46:20;;;;;;;13.20;9.90;;;;;;;10.68;55.95;101708.38;4990992;28;96704;-74
2020/12/21 00:48:55;;;;;;;11.88;9.75;;;;;;;10.66;56.02;101712.59;4973962;28;97553;-75
2020/12/21 00:51:24;;;;;;;9.82;8.85;;;;;;;10.65;56.37;101711.72;4972365;28;97067;-73
2020/12/21 00:53:52;;;;;;;10.07;9.05;;;;;;;10.63;56.01;101709.78;4989525;28;97339;-74
2020/12/21 00:56:20;;;;;;;12.77;10.35;;;;;;;10.62;56.12;101710.59;4991137;28;97270;-74
2020/12/21 00:58:48;;;;;;;12.00;8.65;;;;;;;10.62;55.92;101711.50;4986957;28;98039;-74
2020/12/21 01:01:17;;;;;;;9.68;8.45;;;;;;;10.63;56.02;101712.41;5009292;28;101431;-74
2020/12/21 01:03:57;;;;;;;12.65;9.48;;;;;;;10.60;56.44;101705.22;5002572;28;97278;-74
2020/12/21 01:06:26;;;;;;;10.40;9.00;;;;;;;10.58;56.27;101711.19;4973776;28;97122;-74
2020/12/21 01:08:55;;;;;;;10.43;9.38;;;;;;;10.58;56.03;101704.25;4996599;28;99073;-74
2020/12/21 01:11:23;;;;;;;12.95;9.88;;;;;;;10.58;56.30;101712.13;4976302;28;99434;-74
2020/12/21 01:13:51;;;;;;;10.98;9.25;;;;;;;10.58;56.47;101713.81;4993217;28;96760;-74
2020/12/21 01:16:20;;;;;;;13.75;9.20;;;;;;;10.58;55.81;101712.13;4991044;28;96952;-74
2020/12/21 01:18:49;;;;;;;9.93;8.77;;;;;;;10.59;55.96;101719.19;4990514;28;97889;-74
2020/12/21 01:21:27;;;;;;;13.00;9.60;;;;;;;10.59;55.96;101731.41;4972805;28;98019;-75
2020/12/21 01:23:55;;;;;;;12.18;9.50;;;;;;;10.60;56.04;101721.00;5010787;28;97864;-75
2020/12/21 01:26:23;;;;;;;10.32;9.10;;;;;;;10.61;55.68;101729.78;5010279;28;97193;-75
2020/12/21 01:28:50;;;;;;;12.05;9.77;;;;;;;10.64;56.45;101735.25;5007635;28;98467;-75
2020/12/21 01:31:18;;;;;;;11.75;8.90;;;;;;;10.63;56.23;101736.97;4990167;28;98114;-74
2020/12/21 01:33:47;;;;;;;11.68;9.25;;;;;;;10.66;56.59;101746.78;4991374;28;97018;-74
2020/12/21 01:36:16;;;;;;;10.27;9.00;;;;;;;10.66;56.45;101754.66;4972238;28;96699;-74
2020/12/21 01:38:45;;;;;;;11.55;8.90;;;;;;;10.64;56.58;101748.38;4997474;28;99266;-73
2020/12/21 01:41:12;;;;;;;10.98;8.52;;;;;;;10.64;56.30;101744.03;5009686;28;98981;-74
2020/12/21 01:43:40;;;;;;;13.53;11.37;;;;;;;10.89;55.75;101741.38;4991979;28;97454;-74
2020/12/21 01:46:10;;;;;;;12.45;10.88;;;;;;;11.03;55.80;101745.81;4998029;28;98005;-74
2020/12/21 01:48:38;;;;;;;13.07;11.15;;;;;;;11.14;55.86;101755.34;5004203;28;98817;-75
2020/12/21 01:51:25;;;;;;;11.38;7.70;;;;;;;10.98;56.28;101748.13;5009083;28;97117;-75
2020/12/21 01:53:55;;;;;;;10.02;8.38;;;;;;;10.93;56.19;101753.91;4982319;28;96712;-74
2020/12/21 01:56:23;;;;;;;8.35;7.03;;;;;;;10.90;56.29;101759.88;4971507;28;97204;-75
2020/12/21 01:58:51;;;;;;;7.82;7.03;;;;;;;10.86;56.37;101756.91;4984636;28;98142;-75
2020/12/21 02:01:19;;;;;;;7.80;7.00;;;;;;;10.86;56.53;101757.84;5011191;28;98048;-73
2020/12/21 02:03:48;;;;;;;9.18;7.15;;;;;;;10.84;56.69;101754.19;4994797;28;97047;-74
2020/12/21 02:06:17;;;;;;;8.07;7.28;;;;;;;10.82;56.09;101745.28;4994109;28;96852;-74
2020/12/21 02:08:45;;;;;;;9.93;7.15;;;;;;;10.84;56.26;101754.19;4993828;28;97781;-73
2020/12/21 02:11:14;;;;;;;8.20;7.35;;;;;;;10.84;56.63;101750.63;5007270;28;97853;-74
2020/12/21 02:13:42;;;;;;;9.27;7.28;;;;;;;10.87;56.48;101754.41;4995765;28;97332;-74
2020/12/21 02:16:14;;;;;;;8.82;7.93;;;;;;;10.91;56.07;101751.16;5012690;28;97167;-75
2020/12/21 02:18:43;;;;;;;11.57;7.47;;;;;;;10.89;56.27;101747.50;4991681;28;97815;-75
2020/12/21 02:21:11;;;;;;;8.70;7.63;;;;;;;10.91;56.57;101755.53;4992992;28;97797;-75
2020/12/21 02:23:39;;;;;;;8.25;7.45;;;;;;;10.92;56.59;101757.34;4993318;28;97344;-74
2020/12/21 02:26:07;;;;;;;8.57;7.78;;;;;;;10.92;56.52;101759.97;4991153;28;97391;-74
2020/12/21 02:28:35;;;;;;;9.15;8.00;;;;;;;10.89;56.48;101757.13;4992754;28;98929;-74
2020/12/21 02:31:02;;;;;;;8.40;7.57;;;;;;;10.88;56.00;101755.31;4994697;28;98214;-75
2020/12/21 02:33:30;;;;;;;9.82;7.25;;;;;;;10.85;56.29;101750.78;4995289;28;97235;-74
2020/12/21 02:35:57;;;;;;;9.48;7.47;;;;;;;10.84;56.46;101755.91;5006146;28;96788;-74
2020/12/21 02:38:26;;;;;;;10.30;7.60;;;;;;;10.82;56.56;101757.53;4992290;28;99044;-74
2020/12/21 02:40:53;;;;;;;8.30;7.50;;;;;;;10.81;55.96;101753.06;5011040;28;97873;-74
2020/12/21 02:43:21;;;;;;;12.35;9.73;;;;;;;11.04;56.43;101755.50;5011884;28;97323;-74
2020/12/21 02:45:49;;;;;;;9.25;8.20;;;;;;;10.92;56.10;101759.97;5004690;28;96737;-74
2020/12/21 02:48:17;;;;;;;10.15;8.38;;;;;;;10.90;56.25;101756.31;4995321;28;98077;-74
2020/12/21 02:50:44;;;;;;;11.05;8.43;;;;;;;10.90;56.57;101761.56;5011679;28;98110;-74
2020/12/21 02:53:12;;;;;;;9.68;8.25;;;;;;;10.88;56.35;101763.19;5008965;28;97128;-75
2020/12/21 02:55:41;;;;;;;8.75;7.50;;;;;;;10.85;56.50;101761.28;4993006;28;96688;-74
2020/12/21 02:58:08;;;;;;;8.27;7.47;;;;;;;10.82;56.64;101766.31;5000907;28;99030;-74
2020/12/21 03:00:54;;;;;;;10.00;7.93;;;;;;;10.81;56.46;101767.13;5010189;28;99366;-74
2020/12/21 03:03:22;;;;;;;9.77;8.25;;;;;;;10.80;56.16;101772.28;5003778;28;97858;-73
2020/12/21 03:05:49;;;;;;;8.30;7.40;;;;;;;10.78;56.77;101768.66;5012462;28;96814;-73
2020/12/21 03:08:17;;;;;;;9.10;7.28;;;;;;;10.76;56.67;101755.41;5010452;28;98228;-74
2020/12/21 03:11:03;;;;;;;9.63;7.00;;;;;;;10.75;56.18;101750.94;5005920;28;97473;-73
2020/12/21 03:13:30;;;;;;;11.10;8.43;;;;;;;10.76;56.02;101746.59;5000858;28;98279;-75
2020/12/21 03:15:58;;;;;;;15.23;10.30;;;;;;;11.00;56.09;101754.41;5005460;28;96947;-74
2020/12/21 03:18:25;;;;;;;9.85;7.95;;;;;;;10.89;56.61;101747.50;5011815;28;97815;-74
2020/12/21 03:20:53;;;;;;;10.68;8.60;;;;;;;10.86;56.29;101757.84;5011910;28;97748;-74
2020/12/21 03:23:20;;;;;;;10.50;8.45;;;;;;;10.86;56.11;101751.66;4976541;28;97079;-74
2020/12/21 03:25:47;;;;;;;9.00;8.05;;;;;;;10.86;56.57;101751.66;4992687;28;97029;-75
2020/12/21 03:28:16;;;;;;;9.77;8.55;;;;;;;10.85;56.53;101757.72;4991260;28;96843;-75
2020/12/21 03:30:43;;;;;;;10.13;8.15;;;;;;;10.83;56.54;101756.72;4973564;28;97223;-75
2020/12/21 03:33:11;;;;;;;9.18;8.02;;;;;;;10.82;55.88;101745.28;5009373;28;98884;-73
2020/12/21 03:35:38;;;;;;;10.20;8.52;;;;;;;10.80;55.94;101752.16;5012033;28;97192;-75
2020/12/21 03:38:06;;;;;;;12.55;9.23;;;;;;;10.78;55.94;101760.75;4993573;28;99208;-75
2020/12/21 03:40:34;;;;;;;9.68;8.63;;;;;;;10.78;56.18;101747.63;5006042;28;97872;-73
2020/12/21 03:43:01;;;;;;;14.80;10.97;;;;;;;11.02;55.67;101749.28;5010938;28;97259;-74
2020/12/21 03:45:30;;;;;;;12.70;9.25;;;;;;;10.86;56.18;101741.13;5010753;28;97150;-73
2020/12/21 03:47:59;;;;;;;10.70;8.80;;;;;;;10.82;55.65;101747.03;5000519;28;97948;-74
2020/12/21 03:50:45;;;;;;;10.70;9.35;;;;;;;10.76;56.34;101741.34;4973944;28;98422;-74
2020/12/21 03:53:12;;;;;;;11.75;9.55;;;;;;;10.73;56.62;101749.03;4992283;28;96728;-74
2020/12/21 03:55:40;;;;;;;10.45;8.65;;;;;;;10.71;56.47;101745.38;4990893;28;96723;-74
2020/12/21 03:58:07;;;;;;;9.57;8.60;;;;;;;10.71;55.88;101755.91;4999688;28;98491;-72
2020/12/21 04:00:35;;;;;;;10.57;8.07;;;;;;;10.66;56.03;101754.66;5010979;28;98894;-73
2020/12/21 04:03:03;;;;;;;11.00;8.70;;;;;;;10.64;56.17;101754.56;5011927;28;97416;-73
2020/12/21 04:06:04;;;;;;;12.70;8.40;;;;;;;10.58;56.36;101754.16;4991109;28;97134;-74
2020/12/21 04:08:32;;;;;;;10.85;8.63;;;;;;;10.57;56.60;101749.69;4990186;28;98223;-74
2020/12/21 04:10:59;;;;;;;10.48;9.05;;;;;;;10.54;56.63;101754.75;4983966;28;98311;-75
2020/12/21 04:13:27;;;;;;;11.23;8.30;;;;;;;10.53;56.52;101754.66;4989526;28;97049;-75
2020/12/21 04:16:25;;;;;;;12.13;9.05;;;;;;;10.50;56.13;101757.03;4991607;28;97631;-74
2020/12/21 04:18:52;;;;;;;13.13;9.52;;;;;;;10.47;56.88;101755.13;4990769;28;97832;-74
2020/12/21 04:21:20;;;;;;;12.50;8.57;;;;;;;10.45;56.41;101761.06;4990369;28;99283;-74
2020/12/21 04:23:48;;;;;;;11.02;8.80;;;;;;;10.41;56.68;101756.41;4974194;28;96781;-75
2020/12/21 04:26:15;;;;;;;12.93;9.05;;;;;;;10.38;56.81;101757.13;4999438;28;97195;-73
2020/12/21 04:28:43;;;;;;;12.95;9.68;;;;;;;10.37;55.80;101767.50;4994007;28;99133;-74
2020/12/21 04:31:10;;;;;;;10.80;9.05;;;;;;;10.35;56.87;101763.84;4995747;28;98364;-74
2020/12/21 04:33:38;;;;;;;14.57;9.65;;;;;;;10.31;56.83;101756.59;4958146;28;96717;-74
2020/12/21 04:36:08;;;;;;;10.35;8.48;;;;;;;10.29;56.81;101755.56;4992556;28;96823;-75
2020/12/21 04:38:37;;;;;;;11.88;9.25;;;;;;;10.27;57.04;101762.44;4972966;28;98219;-74
2020/12/21 04:41:05;;;;;;;11.43;9.32;;;;;;;10.25;56.23;101774.53;4965343;28;100781;-74
2020/12/21 04:43:33;;;;;;;12.00;9.27;;;;;;;10.23;56.72;101776.13;5011351;28;96645;-75
2020/12/21 04:46:04;;;;;;;12.52;10.27;;;;;;;10.19;56.12;101778.56;4975982;28;96918;-74
2020/12/21 04:48:33;;;;;;;13.95;9.35;;;;;;;10.17;56.58;101781.88;4990600;28;98272;-74
2020/12/21 04:51:03;;;;;;;10.27;9.25;;;;;;;10.14;56.59;101777.31;4972662;28;98037;-73
2020/12/21 04:53:31;;;;;;;10.98;9.70;;;;;;;10.15;56.24;101781.78;5002277;28;97073;-74
2020/12/21 04:55:59;;;;;;;15.02;10.15;;;;;;;10.13;56.28;101775.50;5008705;28;97136;-74
2020/12/21 04:58:27;;;;;;;11.07;9.52;;;;;;;10.10;56.18;101783.16;4979926;28;99095;-74
2020/12/21 05:00:55;;;;;;;12.45;9.25;;;;;;;10.06;56.54;101773.22;4990610;28;97866;-73
2020/12/21 05:03:23;;;;;;;12.27;9.30;;;;;;;10.04;56.19;101777.44;5000796;28;97393;-73
2020/12/21 05:05:50;;;;;;;10.95;9.40;;;;;;;10.02;56.25;101778.13;4986136;28;96926;-73
2020/12/21 05:08:20;;;;;;;11.00;9.15;;;;;;;9.98;56.92;101774.38;5008663;28;97941;-74
2020/12/21 05:10:57;;;;;;;10.25;8.52;;;;;;;9.91;56.61;101777.38;5011172;28;97838;-72
2020/12/21 05:13:25;;;;;;;12.02;9.20;;;;;;;9.89;56.77;101780.69;5005178;28;97917;-72
2020/12/21 05:15:53;;;;;;;13.13;9.43;;;;;;;9.87;56.74;101767.44;4992254;28;97248;-72
2020/12/21 05:18:23;;;;;;;13.00;9.45;;;;;;;9.83;57.07;101769.75;4967197;28;101503;-71
2020/12/21 05:20:58;;;;;;;10.23;9.27;;;;;;;9.78;56.37;101774.66;4991338;28;98010;-72
2020/12/21 05:23:27;;;;;;;10.25;9.18;;;;;;;9.76;56.80;101780.63;4973717;28;97336;-73
2020/12/21 05:25:59;;;;;;;9.80;8.35;;;;;;;9.73;56.30;101773.41;4973857;28;96796;-71
2020/12/21 05:28:28;;;;;;;11.25;9.02;;;;;;;9.73;57.01;101780.38;4990244;28;99476;-73
2020/12/21 05:30:57;;;;;;;10.80;8.73;;;;;;;9.72;57.18;101773.31;4990289;28;99239;-73
2020/12/21 05:33:25;;;;;;;14.40;9.23;;;;;;;9.70;56.48;101773.22;4975053;28;97053;-73
2020/12/21 05:35:55;;;;;;;12.30;9.23;;;;;;;9.68;56.43;101764.31;4995542;28;96866;-73
2020/12/21 05:38:26;;;;;;;10.38;9.07;;;;;;;9.68;56.87;101766.00;5008780;28;99116;-73
2020/12/21 05:41:07;;;;;;;14.88;9.30;;;;;;;9.68;56.38;101771.25;4993471;28;98909;-73
2020/12/21 05:43:36;;;;;;;12.80;8.80;;;;;;;9.64;56.52;101772.75;4990906;28;96831;-73
2020/12/21 05:46:24;;;;;;;11.55;8.82;;;;;;;9.64;56.82;101769.22;4979586;28;97400;-73
2020/12/21 05:48:55;;;;;;;14.68;9.73;;;;;;;9.61;56.75;101769.94;4995747;28;99039;-73
2020/12/21 05:51:24;;;;;;;10.02;8.57;;;;;;;9.60;56.80;101769.81;4999382;28;98602;-74
2020/12/21 05:53:53;;;;;;;11.30;9.00;;;;;;;9.58;56.76;101769.69;5010791;28;97251;-74
2020/12/21 05:56:22;;;;;;;13.18;9.40;;;;;;;9.55;56.71;101761.59;4997207;28;97023;-74
2020/12/21 05:58:51;;;;;;;13.98;10.07;;;;;;;9.55;57.11;101755.44;5007789;28;97857;-74
2020/12/21 06:01:18;;;;;;;13.25;10.10;;;;;;;9.52;56.57;101750.91;5001362;28;98888;-74
2020/12/21 06:03:48;;;;;;;11.00;9.02;;;;;;;9.51;56.48;101759.53;4992489;28;97248;-75
2020/12/21 06:06:17;;;;;;;12.35;10.07;;;;;;;9.48;56.58;101756.72;4984337;28;96860;-74
2020/12/21 06:08:45;;;;;;;10.38;9.15;;;;;;;9.46;57.09;101757.38;5012398;28;99474;-75
2020/12/21 06:11:15;;;;;;;12.05;10.73;;;;;;;9.43;57.17;101759.81;4995323;28;99001;-74
2020/12/21 06:13:48;;;;;;;19.93;14.73;;;;;;;9.72;56.20;101761.13;4993890;28;97035;-75
2020/12/21 06:16:17;;;;;;;20.30;15.52;;;;;;;9.81;56.01;101759.16;4994405;28;97206;-73
2020/12/21 06:19:04;;;;;;;17.35;12.07;;;;;;;9.61;55.80;101763.75;4976480;28;99946;-74
2020/12/21 06:21:33;;;;;;;14.65;11.00;;;;;;;9.56;56.06;101768.66;5002514;28;97375;-74
2020/12/21 06:24:01;;;;;;;14.98;11.55;;;;;;;9.52;56.27;101766.63;5005175;28;97025;-74
2020/12/21 06:26:34;;;;;;;16.92;11.90;;;;;;;9.50;56.58;101773.47;5004479;28;97240;-75
2020/12/21 06:29:05;;;;;;;13.40;10.68;;;;;;;9.47;56.60;101778.47;5007783;28;96907;-75
2020/12/21 06:31:43;;;;;;;13.48;11.30;;;;;;;9.43;56.77;101771.22;5003301;28;98062;-75
2020/12/21 06:34:14;;;;;;;13.90;10.00;;;;;;;9.44;56.16;101773.00;5008046;28;97293;-74
2020/12/21 06:36:43;;;;;;;13.75;11.35;;;;;;;9.42;56.35;101761.50;5005089;28;97291;-75
2020/12/21 06:39:22;;;;;;;17.77;11.23;;;;;;;9.40;56.40;101770.06;4989985;28;97818;-76
2020/12/21 06:42:06;;;;;;;17.55;11.00;;;;;;;9.38;56.23;101772.56;5010962;28;99209;-74
2020/12/21 06:44:37;;;;;;;15.27;10.93;;;;;;;9.37;56.35;101768.13;5002971;28;97269;-75
2020/12/21 06:47:06;;;;;;;15.45;10.57;;;;;;;9.36;56.81;101773.25;5012253;28;97247;-75
2020/12/21 06:49:34;;;;;;;15.35;10.65;;;;;;;9.34;56.46;101772.25;4993045;28;97251;-74
2020/12/21 06:52:03;;;;;;;18.27;10.85;;;;;;;9.32;56.83;101768.59;4993075;28;97826;-75
2020/12/21 06:54:30;;;;;;;13.07;10.85;;;;;;;9.31;56.92;101779.84;5012702;28;96826;-72
2020/12/21 06:56:58;;;;;;;15.75;11.18;;;;;;;9.31;56.74;101770.28;4994923;28;97580;-73
2020/12/21 06:59:27;;;;;;;21.27;15.55;;;;;;;9.58;55.77;101776.66;4991613;28;99188;-75
2020/12/21 07:01:56;;;;;;;13.63;12.23;;;;;;;9.43;56.15;101778.16;4988040;28;99203;-73
2020/12/21 07:04:25;;;;;;;16.15;11.68;;;;;;;9.37;56.05;101777.69;5002983;28;96601;-74
2020/12/21 07:06:53;;;;;;;17.08;10.30;;;;;;;9.34;56.90;101777.47;5007026;28;97303;-75
2020/12/21 07:09:23;;;;;;;14.15;11.35;;;;;;;9.30;56.44;101781.59;4989967;28;97123;-75
2020/12/21 07:11:55;;;;;;;13.43;10.07;;;;;;;9.30;56.45;101784.22;4991070;28;99309;-71
2020/12/21 07:14:24;;;;;;;15.88;10.18;;;;;;;9.30;57.04;101778.03;5010255;28;98117;-71
2020/12/21 07:17:02;;;;;;;13.55;10.32;;;;;;;9.28;56.24;101784.88;5009187;28;96974;-72
2020/12/21 07:19:32;;;;;;;25.10;16.67;;;;;;;9.31;56.55;101790.34;5010644;28;99000;-72
2020/12/21 07:21:59;;;;;;;15.27;12.20;;;;;;;9.27;56.23;101794.44;4986752;28;100940;-72
2020/12/21 07:24:27;;;;;;;12.93;11.07;;;;;;;9.27;56.98;101794.44;5012297;28;98190;-72
2020/12/21 07:26:55;;;;;;;14.88;10.43;;;;;;;9.26;56.71;101784.78;5008176;28;96771;-72
2020/12/21 07:29:22;;;;;;;13.15;9.80;;;;;;;9.27;56.60;101783.97;5010923;28;97801;-71
2020/12/21 07:31:50;;;;;;;13.40;10.60;;;;;;;9.25;56.80;101790.84;5010981;28;96843;-72
2020/12/21 07:34:18;;;;;;;16.73;10.82;;;;;;;9.29;56.95;101784.09;4993261;28;97332;-72
2020/12/21 07:36:46;;;;;;;14.35;10.23;;;;;;;9.29;56.54;101782.38;5009631;28;97347;-72
2020/12/21 07:39:14;;;;;;;17.17;12.60;;;;;;;9.31;56.49;101786.03;4992053;28;101517;-71
2020/12/21 07:41:44;;;;;;;30.33;17.13;;;;;;;9.32;56.52;101785.25;5008283;28;97012;-72
2020/12/21 07:44:19;;;;;;;25.90;16.05;;;;;;;9.34;56.70;101791.50;5002885;28;97359;-71
2020/12/21 07:46:56;;;;;;;18.73;12.80;;;;;;;9.32;56.35;101792.19;5011487;28;97150;-71
2020/12/21 07:49:24;;;;;;;14.18;9.57;;;;;;;9.35;57.05;101798.56;5009211;28;99316;-71
2020/12/21 07:52:10;;;;;;;17.85;10.07;;;;;;;9.37;56.31;101801.28;5014845;28;96724;-71
2020/12/21 07:54:40;;;;;;;11.10;9.80;;;;;;;9.40;56.20;101812.03;4984382;28;97388;-71
2020/12/21 07:57:09;;;;;;;19.25;13.60;;;;;;;9.41;56.18;101814.75;5002791;28;97002;-71
2020/12/21 07:59:37;;;;;;;32.13;20.98;;;;;;;9.43;56.02;101818.41;4991075;28;96680;-71
2020/12/21 08:02:06;;;;;;;25.35;15.80;;;;;;;9.47;56.18;101820.44;4988384;28;99761;-70
2020/12/21 08:04:34;;;;;;;15.90;11.45;;;;;;;9.49;56.77;101813.59;5009564;28;96955;-71
2020/12/21 08:07:05;;;;;;;14.13;11.32;;;;;;;9.50;56.45;101823.31;5009594;28;96657;-71
2020/12/21 08:09:37;;;;;;;13.85;10.38;;;;;;;9.51;56.13;101821.56;4981812;28;99220;-71
2020/12/21 08:12:07;;;;;;;14.75;11.05;;;;;;;9.48;56.46;101819.66;5000549;28;98200;-71
2020/12/21 08:14:35;;;;;;;16.35;12.27;;;;;;;9.47;55.89;101817.81;4995698;28;98040;-71
2020/12/21 08:17:09;;;;;;;17.17;11.95;;;;;;;9.45;56.59;101816.78;4999776;28;97511;-71
2020/12/21 08:19:47;;;;;;;15.60;11.95;;;;;;;9.45;56.40;101814.16;4998931;28;97310;-72
2020/12/21 08:22:18;;;;;;;26.80;20.25;;;;;;;9.45;56.30;101811.53;4984980;28;98031;-72
2020/12/21 08:24:46;;;;;;;23.98;14.90;;;;;;;9.46;56.13;101808.13;5001055;28;96795;-71
2020/12/21 08:27:19;;;;;;;17.83;12.45;;;;;;;9.45;56.47;101800.16;5008989;28;97265;-71
2020/12/21 08:29:48;;;;;;;15.00;11.15;;;;;;;9.46;55.91;101802.88;4988357;28;100833;-75
2020/12/21 08:32:15;;;;;;;16.40;11.63;;;;;;;9.46;56.06;101802.88;5016595;28;99825;-73
2020/12/21 08:34:43;;;;;;;12.98;10.70;;;;;;;9.47;56.22;101796.84;4997284;28;97243;-75
2020/12/21 08:37:23;;;;;;;14.63;10.10;;;;;;;9.49;55.98;101803.09;4994032;28;96832;-75
2020/12/21 08:39:54;;;;;;;15.52;10.45;;;;;;;9.54;56.47;101799.13;5004888;28;97846;-75
2020/12/21 08:42:21;;;;;;;15.35;10.32;;;;;;;9.58;55.98;101798.53;4996955;28;97006;-73
2020/12/21 08:44:50;;;;;;;16.17;9.80;;;;;;;9.64;56.04;101803.31;5007136;28;96603;-75
2020/12/21 08:47:17;;;;;;;16.00;10.30;;;;;;;9.67;56.40;101803.56;4994075;28;97242;-75
2020/12/21 08:49:45;;;;;;;14.13;9.73;;;;;;;9.72;56.06;101805.72;4976433;28;99485;-75
2020/12/21 08:52:17;;;;;;;14.00;9.55;;;;;;;9.78;56.29;101795.66;4978150;28;97865;-75
2020/12/21 08:54:44;;;;;;;13.48;9.70;;;;;;;9.82;55.87;101804.66;4994867;28;96813;-75
2020/12/21 08:57:12;;;;;;;11.00;8.80;;;;;;;9.86;55.64;101791.88;4977820;28;97318;-75
2020/12/21 08:59:41;;;;;;;13.80;9.65;;;;;;;9.91;55.35;101789.56;4995961;28;97936;-75
2020/12/21 09:02:08;;;;;;;13.70;8.98;;;;;;;9.95;55.81;101795.16;4975050;28;99083;-72
2020/12/21 09:04:36;;;;;;;16.88;8.95;;;;;;;10.00;55.83;101799.00;4994573;28;97073;-75
2020/12/21 09:07:05;;;;;;;14.32;10.23;;;;;;;10.07;55.36;101803.88;4984524;28;97469;-75
2020/12/21 09:09:34;;;;;;;16.20;11.35;;;;;;;10.09;55.16;101799.69;4993415;28;99154;-75
2020/12/21 09:12:05;;;;;;;18.38;11.48;;;;;;;10.14;55.51;101805.28;5000563;28;99597;-76
2020/12/21 09:14:33;;;;;;;14.45;10.63;;;;;;;10.16;55.43;101801.06;4974066;28;97456;-76
2020/12/21 09:17:01;;;;;;;16.70;11.20;;;;;;;10.19;55.67;101803.91;5002042;28;97147;-76
2020/12/21 09:19:30;;;;;;;14.18;10.57;;;;;;;10.23;55.34;101805.03;4999997;28;97618;-76
2020/12/21 09:21:58;;;;;;;13.98;10.27;;;;;;;10.27;55.33;101810.63;5004220;28;100850;-76
2020/12/21 09:24:25;;;;;;;16.75;10.55;;;;;;;10.30;54.57;101802.03;4997592;28;96817;-76
2020/12/21 09:26:53;;;;;;;15.15;10.07;;;;;;;10.31;55.08;101796.00;5001274;28;97020;-75
2020/12/21 09:29:20;;;;;;;12.57;10.40;;;;;;;10.36;55.18;101791.97;4999333;28;98166;-66
2020/12/21 09:32:07;;;;;;;22.27;11.90;;;;;;;10.39;55.50;101802.66;5001184;28;98070;-68
2020/12/21 09:34:34;;;;;;;14.98;10.60;;;;;;;10.41;55.23;101801.06;4997761;28;97139;-67
2020/12/21 09:37:02;;;;;;;18.33;10.95;;;;;;;10.43;55.03;101807.34;5002568;28;97355;-67
2020/12/21 09:39:30;;;;;;;19.27;13.77;;;;;;;10.62;54.47;101792.94;5001132;28;100758;-67
2020/12/21 09:41:58;;;;;;;14.90;11.52;;;;;;;10.54;54.49;101793.22;5005365;28;97351;-67
2020/12/21 09:44:26;;;;;;;15.88;11.38;;;;;;;10.53;55.21;101791.44;5010580;28;97006;-72
2020/12/21 09:46:53;;;;;;;18.63;12.07;;;;;;;10.53;54.52;101792.31;5010023;28;97290;-70
2020/12/21 09:49:20;;;;;;;14.65;10.25;;;;;;;10.54;54.67;101793.22;5001403;28;97886;-71
2020/12/21 09:51:49;;;;;;;18.13;13.43;;;;;;;10.74;54.73;101793.81;4979296;28;99149;-67
2020/12/21 09:54:17;;;;;;;14.70;10.40;;;;;;;10.69;54.44;101786.41;5010986;28;97070;-67
2020/12/21 09:56:46;;;;;;;14.48;10.80;;;;;;;10.69;54.48;101781.16;5007506;28;96772;-67
2020/12/21 09:59:15;;;;;;;11.98;9.57;;;;;;;10.68;54.36;101776.69;5004411;28;98065;-67
2020/12/21 10:01:42;;;;;;;14.65;9.98;;;;;;;10.69;54.65;101784.69;4988662;28;97650;-67
2020/12/21 10:04:28;;;;;;;13.93;10.02;;;;;;;10.70;55.12;101778.63;5009251;28;97392;-68
2020/12/21 10:06:56;;;;;;;13.70;9.70;;;;;;;10.74;54.73;101771.88;4997452;28;97264;-69
2020/12/21 10:09:30;;;;;;;16.15;10.00;;;;;;;10.78;54.72;101768.66;5004682;28;97092;-68
2020/12/21 10:11:58;;;;;;;13.45;8.75;;;;;;;10.79;54.60;101766.13;5003846;28;97915;-73
2020/12/21 10:14:27;;;;;;;14.43;9.25;;;;;;;10.85;54.39;101773.50;5005100;28;97135;-73
2020/12/21 10:16:54;;;;;;;13.45;10.23;;;;;;;10.88;54.48;101763.19;5003960;28;97218;-73
2020/12/21 10:19:22;;;;;;;18.77;13.50;;;;;;;11.11;54.30;101760.41;5001216;28;97940;-72
2020/12/21 10:21:49;;;;;;;16.50;10.25;;;;;;;11.07;54.20;101764.53;5000260;28;99281;-73
2020/12/21 10:24:17;;;;;;;12.68;9.55;;;;;;;11.09;54.22;101759.38;5002880;28;96830;-74
2020/12/21 10:26:44;;;;;;;15.15;8.70;;;;;;;11.11;54.16;101760.41;4995668;28;97163;-72
2020/12/21 10:29:12;;;;;;;14.75;8.95;;;;;;;11.15;54.22;101751.88;5006616;28;98194;-73
2020/12/21 10:31:59;;;;;;;14.07;9.25;;;;;;;11.23;54.06;101750.69;4987770;28;96792;-72
2020/12/21 10:34:27;;;;;;;17.60;11.88;;;;;;;11.48;53.86;101746.19;4992457;28;97245;-71
2020/12/21 10:36:55;;;;;;;16.48;11.55;;;;;;;11.65;53.58;101745.59;4998843;28;97175;-73
2020/12/21 10:39:22;;;;;;;15.25;9.95;;;;;;;11.60;54.14;101744.38;5006116;28;98307;-72
2020/12/21 10:41:49;;;;;;;14.90;9.25;;;;;;;11.62;53.96;101752.38;5007912;28;97745;-73
2020/12/21 10:44:17;;;;;;;13.13;8.18;;;;;;;11.64;53.77;101745.47;4984876;28;96754;-73
2020/12/21 10:46:44;;;;;;;12.32;8.70;;;;;;;11.63;53.89;101741.94;5005344;28;97369;-73
2020/12/21 10:49:13;;;;;;;10.57;8.50;;;;;;;11.61;54.09;101740.91;4994045;28;99881;-73
2020/12/21 10:51:40;;;;;;;14.93;8.88;;;;;;;11.62;54.13;101731.31;5004808;28;97842;-73
2020/12/21 10:54:08;;;;;;;12.18;8.02;;;;;;;11.62;54.07;101726.97;5004169;28;97045;-73
2020/12/21 10:56:36;;;;;;;10.02;8.25;;;;;;;11.62;54.24;101719.06;4981966;28;98086;-73
2020/12/21 10:59:04;;;;;;;10.25;7.55;;;;;;;11.65;53.93;101716.66;5003607;28;97998;-73
2020/12/21 11:01:31;;;;;;;13.15;8.23;;;;;;;11.66;54.27;101713.19;5006092;28;98162;-74
2020/12/21 11:03:59;;;;;;;9.85;7.35;;;;;;;11.69;54.15;101705.53;4992502;28;97314;-74
2020/12/21 11:06:29;;;;;;;10.38;6.55;;;;;;;11.71;54.23;101706.53;5007176;28;96889;-74
2020/12/21 11:08:56;;;;;;;17.92;10.52;;;;;;;11.73;54.21;101699.59;5007982;28;99001;-73
2020/12/21 11:11:26;;;;;;;11.90;7.78;;;;;;;11.75;54.12;101700.63;4986472;28;96727;-74
2020/12/21 11:13:54;;;;;;;16.63;8.70;;;;;;;11.79;53.98;101694.75;5008450;28;97287;-72
2020/12/21 11:16:22;;;;;;;11.25;7.72;;;;;;;11.78;53.94;101690.31;5010730;28;97152;-72
2020/12/21 11:18:49;;;;;;;11.88;7.35;;;;;;;11.77;53.87;101685.84;5008757;28;97945;-73
2020/12/21 11:21:17;;;;;;;10.57;6.90;;;;;;;11.80;53.95;101679.88;5007877;28;97971;-72
2020/12/21 11:23:59;;;;;;;12.73;8.52;;;;;;;11.83;53.95;101677.41;4993686;28;96808;-72
2020/12/21 11:26:26;;;;;;;10.40;7.05;;;;;;;11.84;53.93;101677.50;4991282;28;96980;-72
2020/12/21 11:28:53;;;;;;;13.00;8.00;;;;;;;11.89;53.55;101677.81;5001400;28;97830;-72